sensor_id;sensor_type;location;lat;lon;timestamp;temperature;humidity
851;DHT22;412;51.400;7.480;2022-09-13T00:01:15;20.40;99.50
851;DHT22;412;51.400;7.480;2022-09-13T00:03:41;20.40;98.70
851;DHT22;412;51.400;7.480;2022-09-13T00:06:15;20.40;98.90
851;DHT22;412;51.400;7.480;2022-09-13T00:08:41;20.40;99.20
851;DHT22;412;51.400;7.480;2022-09-13T00:11:18;20.40;99.40
851;DHT22;412;51.400;7.480;2022-09-13T00:13:44;20.40;99.30
851;DHT22;412;51.400;7.480;2022-09-13T00:16:11;20.40;98.90
851;DHT22;412;51.400;7.480;2022-09-13T00:18:37;20.40;99.20
851;DHT22;412;51.400;7.480;2022-09-13T00:21:05;20.40;99.40
851;DHT22;412;51.400;7.480;2022-09-13T00:23:31;20.30;98.80
851;DHT22;412;51.400;7.480;2022-09-13T00:26:11;20.30;98.60
851;DHT22;412;51.400;7.480;2022-09-13T00:28:37;20.30;99.00
851;DHT22;412;51.400;7.480;2022-09-13T00:31:06;20.20;98.90
851;DHT22;412;51.400;7.480;2022-09-13T00:33:32;20.20;98.70
851;DHT22;412;51.400;7.480;2022-09-13T00:36:01;20.10;97.30
851;DHT22;412;51.400;7.480;2022-09-13T00:38:27;20.10;98.00
851;DHT22;412;51.400;7.480;2022-09-13T00:40:53;20.00;98.20
851;DHT22;412;51.400;7.480;2022-09-13T00:43:21;20.10;97.90
851;DHT22;412;51.400;7.480;2022-09-13T00:46:04;20.10;98.30
851;DHT22;412;51.400;7.480;2022-09-13T00:48:33;20.10;99.90
851;DHT22;412;51.400;7.480;2022-09-13T00:50:59;20.10;99.90
851;DHT22;412;51.400;7.480;2022-09-13T00:53:32;20.00;97.80
851;DHT22;412;51.400;7.480;2022-09-13T00:56:06;20.10;99.00
851;DHT22;412;51.400;7.480;2022-09-13T00:58:49;20.10;99.20
851;DHT22;412;51.400;7.480;2022-09-13T01:01:18;20.10;99.40
851;DHT22;412;51.400;7.480;2022-09-13T01:03:46;20.20;99.20
851;DHT22;412;51.400;7.480;2022-09-13T01:06:16;20.20;98.80
851;DHT22;412;51.400;7.480;2022-09-13T01:08:46;20.20;99.90
851;DHT22;412;51.400;7.480;2022-09-13T01:11:28;20.30;99.90
851;DHT22;412;51.400;7.480;2022-09-13T01:13:55;20.30;99.90
851;DHT22;412;51.400;7.480;2022-09-13T01:16:21;20.30;99.90
851;DHT22;412;51.400;7.480;2022-09-13T01:18:47;20.30;99.90
851;DHT22;412;51.400;7.480;2022-09-13T01:30:11;20.30;99.90
851;DHT22;412;51.400;7.480;2022-09-13T01:39:05;20.30;99.90
851;DHT22;412;51.400;7.480;2022-09-13T01:47:02;20.30;99.90
851;DHT22;412;51.400;7.480;2022-09-13T01:49:40;20.30;99.90
851;DHT22;412;51.400;7.480;2022-09-13T02:00:09;20.20;99.90
851;DHT22;412;51.400;7.480;2022-09-13T02:08:31;20.10;99.90
851;DHT22;412;51.400;7.480;2022-09-13T02:10:59;20.10;99.90
851;DHT22;412;51.400;7.480;2022-09-13T02:13:33;20.10;99.90
851;DHT22;412;51.400;7.480;2022-09-13T02:16:14;20.10;99.90
851;DHT22;412;51.400;7.480;2022-09-13T02:18:45;20.10;99.90
851;DHT22;412;51.400;7.480;2022-09-13T02:21:16;20.10;99.90
851;DHT22;412;51.400;7.480;2022-09-13T02:23:50;20.00;99.90
851;DHT22;412;51.400;7.480;2022-09-13T02:26:18;20.00;99.90
851;DHT22;412;51.400;7.480;2022-09-13T02:28:51;20.00;99.90
851;DHT22;412;51.400;7.480;2022-09-13T02:31:25;20.00;99.90
851;DHT22;412;51.400;7.480;2022-09-13T02:33:56;20.00;99.90
851;DHT22;412;51.400;7.480;2022-09-13T02:36:26;19.90;99.90
851;DHT22;412;51.400;7.480;2022-09-13T02:38:59;19.90;99.90
851;DHT22;412;51.400;7.480;2022-09-13T02:44:01;19.90;99.90
851;DHT22;412;51.400;7.480;2022-09-13T02:55:12;19.90;99.90
851;DHT22;412;51.400;7.480;2022-09-13T02:57:51;20.00;99.90
851;DHT22;412;51.400;7.480;2022-09-13T03:00:18;19.90;99.90
851;DHT22;412;51.400;7.480;2022-09-13T03:02:44;20.00;99.90
851;DHT22;412;51.400;7.480;2022-09-13T03:05:11;20.00;99.90
851;DHT22;412;51.400;7.480;2022-09-13T03:07:36;20.00;99.90
851;DHT22;412;51.400;7.480;2022-09-13T03:10:08;20.00;99.90
851;DHT22;412;51.400;7.480;2022-09-13T03:20:43;20.10;99.90
851;DHT22;412;51.400;7.480;2022-09-13T03:23:21;20.10;99.90
851;DHT22;412;51.400;7.480;2022-09-13T03:26:24;20.20;99.90
851;DHT22;412;51.400;7.480;2022-09-13T03:29:35;20.20;99.90
851;DHT22;412;51.400;7.480;2022-09-13T03:44:57;20.30;99.90
851;DHT22;412;51.400;7.480;2022-09-13T03:47:27;20.30;99.90
851;DHT22;412;51.400;7.480;2022-09-13T03:49:56;20.30;99.90
851;DHT22;412;51.400;7.480;2022-09-13T03:52:22;20.30;99.90
851;DHT22;412;51.400;7.480;2022-09-13T03:54:47;20.30;99.90
851;DHT22;412;51.400;7.480;2022-09-13T03:57:20;20.30;99.90
851;DHT22;412;51.400;7.480;2022-09-13T03:59:49;20.40;99.90
851;DHT22;412;51.400;7.480;2022-09-13T04:02:16;20.40;99.90
851;DHT22;412;51.400;7.480;2022-09-13T04:04:43;20.40;99.90
851;DHT22;412;51.400;7.480;2022-09-13T04:07:11;20.40;99.90
851;DHT22;412;51.400;7.480;2022-09-13T04:09:37;20.40;99.90
851;DHT22;412;51.400;7.480;2022-09-13T04:12:04;20.40;99.90
851;DHT22;412;51.400;7.480;2022-09-13T04:14:30;20.40;99.90
851;DHT22;412;51.400;7.480;2022-09-13T04:16:56;20.40;99.90
851;DHT22;412;51.400;7.480;2022-09-13T04:19:23;20.40;99.90
851;DHT22;412;51.400;7.480;2022-09-13T04:21:53;20.40;99.90
851;DHT22;412;51.400;7.480;2022-09-13T04:24:24;20.40;99.90
851;DHT22;412;51.400;7.480;2022-09-13T04:26:50;20.40;99.90
851;DHT22;412;51.400;7.480;2022-09-13T04:29:17;20.40;99.90
851;DHT22;412;51.400;7.480;2022-09-13T04:31:44;20.30;99.90
851;DHT22;412;51.400;7.480;2022-09-13T04:34:10;20.30;99.90
851;DHT22;412;51.400;7.480;2022-09-13T04:36:36;20.30;99.90
851;DHT22;412;51.400;7.480;2022-09-13T04:39:02;20.30;99.90
851;DHT22;412;51.400;7.480;2022-09-13T04:41:28;20.30;99.90
851;DHT22;412;51.400;7.480;2022-09-13T04:43:54;20.30;99.90
851;DHT22;412;51.400;7.480;2022-09-13T04:46:20;20.30;99.90
851;DHT22;412;51.400;7.480;2022-09-13T04:48:49;20.30;99.90
851;DHT22;412;51.400;7.480;2022-09-13T04:51:16;20.30;99.90
851;DHT22;412;51.400;7.480;2022-09-13T04:53:43;20.30;99.90
851;DHT22;412;51.400;7.480;2022-09-13T04:56:09;20.30;99.90
851;DHT22;412;51.400;7.480;2022-09-13T04:58:35;20.30;99.90
851;DHT22;412;51.400;7.480;2022-09-13T05:01:05;20.30;99.90
851;DHT22;412;51.400;7.480;2022-09-13T05:03:32;20.30;99.90
851;DHT22;412;51.400;7.480;2022-09-13T05:06:12;20.30;99.90
851;DHT22;412;51.400;7.480;2022-09-13T05:08:38;20.20;99.90
851;DHT22;412;51.400;7.480;2022-09-13T05:11:05;20.10;99.90
851;DHT22;412;51.400;7.480;2022-09-13T05:13:32;20.10;99.90
851;DHT22;412;51.400;7.480;2022-09-13T05:16:03;20.10;99.90
851;DHT22;412;51.400;7.480;2022-09-13T05:18:31;20.10;99.90
851;DHT22;412;51.400;7.480;2022-09-13T05:20:58;20.20;99.90
851;DHT22;412;51.400;7.480;2022-09-13T05:23:26;20.20;99.90
851;DHT22;412;51.400;7.480;2022-09-13T05:26:01;20.10;99.90
851;DHT22;412;51.400;7.480;2022-09-13T05:28:28;20.10;99.90
851;DHT22;412;51.400;7.480;2022-09-13T05:30:56;20.00;99.90
851;DHT22;412;51.400;7.480;2022-09-13T05:33:23;20.00;99.90
851;DHT22;412;51.400;7.480;2022-09-13T05:35:49;20.10;99.90
851;DHT22;412;51.400;7.480;2022-09-13T05:38:15;20.20;99.90
851;DHT22;412;51.400;7.480;2022-09-13T05:40:41;20.40;99.90
851;DHT22;412;51.400;7.480;2022-09-13T05:43:08;20.60;99.90
851;DHT22;412;51.400;7.480;2022-09-13T05:45:33;20.80;99.90
851;DHT22;412;51.400;7.480;2022-09-13T05:47:59;20.90;99.90
851;DHT22;412;51.400;7.480;2022-09-13T05:50:25;20.90;99.90
851;DHT22;412;51.400;7.480;2022-09-13T05:52:54;20.80;99.90
851;DHT22;412;51.400;7.480;2022-09-13T05:55:20;20.70;99.90
851;DHT22;412;51.400;7.480;2022-09-13T05:57:47;20.70;99.90
851;DHT22;412;51.400;7.480;2022-09-13T06:00:13;20.60;99.90
851;DHT22;412;51.400;7.480;2022-09-13T06:02:39;20.50;99.90
851;DHT22;412;51.400;7.480;2022-09-13T06:05:09;20.50;99.90
851;DHT22;412;51.400;7.480;2022-09-13T06:07:35;20.50;99.90
851;DHT22;412;51.400;7.480;2022-09-13T06:10:02;20.40;99.90
851;DHT22;412;51.400;7.480;2022-09-13T06:12:29;20.40;99.90
851;DHT22;412;51.400;7.480;2022-09-13T06:14:55;20.40;99.90
851;DHT22;412;51.400;7.480;2022-09-13T06:17:20;20.40;99.90
851;DHT22;412;51.400;7.480;2022-09-13T06:19:46;20.40;99.90
851;DHT22;412;51.400;7.480;2022-09-13T06:22:12;20.40;99.90
851;DHT22;412;51.400;7.480;2022-09-13T06:24:38;20.40;99.90
851;DHT22;412;51.400;7.480;2022-09-13T06:27:03;20.40;99.90
851;DHT22;412;51.400;7.480;2022-09-13T06:29:30;20.40;99.90
851;DHT22;412;51.400;7.480;2022-09-13T06:31:56;20.40;99.90
851;DHT22;412;51.400;7.480;2022-09-13T06:34:22;20.50;99.90
851;DHT22;412;51.400;7.480;2022-09-13T06:36:48;20.40;99.90
851;DHT22;412;51.400;7.480;2022-09-13T06:39:14;20.50;99.90
851;DHT22;412;51.400;7.480;2022-09-13T06:41:40;20.50;99.90
851;DHT22;412;51.400;7.480;2022-09-13T06:44:05;20.40;99.90
851;DHT22;412;51.400;7.480;2022-09-13T06:46:33;20.50;99.90
851;DHT22;412;51.400;7.480;2022-09-13T06:49:00;20.50;99.90
851;DHT22;412;51.400;7.480;2022-09-13T06:51:27;20.50;99.90
851;DHT22;412;51.400;7.480;2022-09-13T06:53:54;20.50;99.90
851;DHT22;412;51.400;7.480;2022-09-13T06:56:25;20.50;99.90
851;DHT22;412;51.400;7.480;2022-09-13T06:58:55;20.50;99.90
851;DHT22;412;51.400;7.480;2022-09-13T07:01:23;20.50;99.90
851;DHT22;412;51.400;7.480;2022-09-13T07:04:00;20.60;99.90
851;DHT22;412;51.400;7.480;2022-09-13T07:06:29;20.60;99.90
851;DHT22;412;51.400;7.480;2022-09-13T07:08:56;20.60;99.90
851;DHT22;412;51.400;7.480;2022-09-13T07:11:24;20.60;99.90
851;DHT22;412;51.400;7.480;2022-09-13T07:13:55;20.60;99.90
851;DHT22;412;51.400;7.480;2022-09-13T07:16:24;20.70;99.90
851;DHT22;412;51.400;7.480;2022-09-13T07:18:59;20.70;99.90
851;DHT22;412;51.400;7.480;2022-09-13T07:21:26;20.70;99.90
851;DHT22;412;51.400;7.480;2022-09-13T07:23:54;20.70;99.90
851;DHT22;412;51.400;7.480;2022-09-13T07:26:21;20.80;99.90
851;DHT22;412;51.400;7.480;2022-09-13T07:28:50;20.80;99.90
851;DHT22;412;51.400;7.480;2022-09-13T07:31:19;20.90;99.90
851;DHT22;412;51.400;7.480;2022-09-13T07:33:49;20.90;99.90
851;DHT22;412;51.400;7.480;2022-09-13T07:36:17;21.00;99.90
851;DHT22;412;51.400;7.480;2022-09-13T07:38:43;21.00;99.90
851;DHT22;412;51.400;7.480;2022-09-13T07:41:14;21.10;99.90
851;DHT22;412;51.400;7.480;2022-09-13T07:43:41;21.10;99.90
851;DHT22;412;51.400;7.480;2022-09-13T07:46:09;21.20;99.90
851;DHT22;412;51.400;7.480;2022-09-13T07:48:37;21.20;99.90
851;DHT22;412;51.400;7.480;2022-09-13T07:51:14;21.20;99.90
851;DHT22;412;51.400;7.480;2022-09-13T07:53:42;21.30;99.90
851;DHT22;412;51.400;7.480;2022-09-13T07:56:10;21.30;99.90
851;DHT22;412;51.400;7.480;2022-09-13T07:58:37;21.30;99.90
851;DHT22;412;51.400;7.480;2022-09-13T08:01:14;21.40;99.90
851;DHT22;412;51.400;7.480;2022-09-13T08:03:41;21.40;99.90
851;DHT22;412;51.400;7.480;2022-09-13T08:06:07;21.50;99.90
851;DHT22;412;51.400;7.480;2022-09-13T08:08:35;21.60;99.90
851;DHT22;412;51.400;7.480;2022-09-13T08:11:03;21.60;99.90
851;DHT22;412;51.400;7.480;2022-09-13T08:13:30;21.60;99.90
851;DHT22;412;51.400;7.480;2022-09-13T08:16:01;21.70;99.90
851;DHT22;412;51.400;7.480;2022-09-13T08:18:27;21.70;99.90
851;DHT22;412;51.400;7.480;2022-09-13T08:20:56;21.80;99.90
851;DHT22;412;51.400;7.480;2022-09-13T08:23:22;21.80;99.90
851;DHT22;412;51.400;7.480;2022-09-13T08:25:48;21.80;99.90
851;DHT22;412;51.400;7.480;2022-09-13T08:28:16;21.90;99.90
851;DHT22;412;51.400;7.480;2022-09-13T08:30:42;21.90;99.90
851;DHT22;412;51.400;7.480;2022-09-13T08:33:09;22.00;99.90
851;DHT22;412;51.400;7.480;2022-09-13T08:35:36;22.00;99.90
851;DHT22;412;51.400;7.480;2022-09-13T08:38:03;22.00;99.90
851;DHT22;412;51.400;7.480;2022-09-13T08:40:47;22.10;99.90
851;DHT22;412;51.400;7.480;2022-09-13T08:45:59;22.20;99.20
851;DHT22;412;51.400;7.480;2022-09-13T08:48:35;22.20;99.40
851;DHT22;412;51.400;7.480;2022-09-13T08:51:04;22.30;99.40
851;DHT22;412;51.400;7.480;2022-09-13T08:53:46;22.40;99.50
851;DHT22;412;51.400;7.480;2022-09-13T08:56:20;22.50;99.80
851;DHT22;412;51.400;7.480;2022-09-13T08:59:05;22.60;99.00
851;DHT22;412;51.400;7.480;2022-09-13T09:09:31;22.90;96.90
851;DHT22;412;51.400;7.480;2022-09-13T09:12:14;23.00;97.00
851;DHT22;412;51.400;7.480;2022-09-13T09:14:45;23.20;97.00
851;DHT22;412;51.400;7.480;2022-09-13T09:17:16;23.20;96.80
851;DHT22;412;51.400;7.480;2022-09-13T09:19:51;23.20;96.90
851;DHT22;412;51.400;7.480;2022-09-13T09:22:20;23.30;96.60
851;DHT22;412;51.400;7.480;2022-09-13T09:24:54;23.50;96.50
851;DHT22;412;51.400;7.480;2022-09-13T09:27:20;23.60;96.00
851;DHT22;412;51.400;7.480;2022-09-13T09:29:49;23.70;96.60
851;DHT22;412;51.400;7.480;2022-09-13T09:32:19;23.80;96.50
851;DHT22;412;51.400;7.480;2022-09-13T09:37:32;23.90;95.40
851;DHT22;412;51.400;7.480;2022-09-13T09:40:01;24.00;95.60
851;DHT22;412;51.400;7.480;2022-09-13T09:42:41;24.10;95.20
851;DHT22;412;51.400;7.480;2022-09-13T09:45:26;24.30;94.80
851;DHT22;412;51.400;7.480;2022-09-13T09:47:54;24.30;94.70
851;DHT22;412;51.400;7.480;2022-09-13T09:50:24;24.50;94.70
851;DHT22;412;51.400;7.480;2022-09-13T09:53:13;24.60;94.60
851;DHT22;412;51.400;7.480;2022-09-13T09:58:43;25.00;93.70
851;DHT22;412;51.400;7.480;2022-09-13T10:01:31;25.20;94.20
851;DHT22;412;51.400;7.480;2022-09-13T10:04:05;25.30;93.90
851;DHT22;412;51.400;7.480;2022-09-13T10:06:34;25.50;93.60
851;DHT22;412;51.400;7.480;2022-09-13T10:09:04;25.60;93.90
851;DHT22;412;51.400;7.480;2022-09-13T10:14:36;25.90;92.20
851;DHT22;412;51.400;7.480;2022-09-13T10:19:37;26.20;91.60
851;DHT22;412;51.400;7.480;2022-09-13T10:22:11;26.40;90.30
851;DHT22;412;51.400;7.480;2022-09-13T10:24:37;26.60;90.40
851;DHT22;412;51.400;7.480;2022-09-13T10:27:04;26.80;89.70
851;DHT22;412;51.400;7.480;2022-09-13T10:29:47;26.90;87.60
851;DHT22;412;51.400;7.480;2022-09-13T10:32:15;27.00;90.60
851;DHT22;412;51.400;7.480;2022-09-13T10:34:45;27.10;87.80
851;DHT22;412;51.400;7.480;2022-09-13T10:37:16;27.20;86.20
851;DHT22;412;51.400;7.480;2022-09-13T10:42:33;27.30;84.60
851;DHT22;412;51.400;7.480;2022-09-13T10:47:36;27.40;86.50
851;DHT22;412;51.400;7.480;2022-09-13T10:52:49;27.70;83.70
851;DHT22;412;51.400;7.480;2022-09-13T11:00:26;27.90;80.50
851;DHT22;412;51.400;7.480;2022-09-13T11:16:43;27.50;81.70
851;DHT22;412;51.400;7.480;2022-09-13T11:24:48;27.40;82.20
851;DHT22;412;51.400;7.480;2022-09-13T11:30:20;27.60;82.00
851;DHT22;412;51.400;7.480;2022-09-13T11:33:08;27.70;83.30
851;DHT22;412;51.400;7.480;2022-09-13T11:41:39;28.30;79.20
851;DHT22;412;51.400;7.480;2022-09-13T11:53:05;28.90;72.80
851;DHT22;412;51.400;7.480;2022-09-13T11:55:54;29.00;72.60
851;DHT22;412;51.400;7.480;2022-09-13T11:58:32;29.00;73.90
851;DHT22;412;51.400;7.480;2022-09-13T12:01:02;29.10;72.30
851;DHT22;412;51.400;7.480;2022-09-13T12:03:51;29.20;71.20
851;DHT22;412;51.400;7.480;2022-09-13T12:06:24;29.10;71.20
851;DHT22;412;51.400;7.480;2022-09-13T12:09:00;29.00;72.00
851;DHT22;412;51.400;7.480;2022-09-13T12:11:34;29.00;72.70
851;DHT22;412;51.400;7.480;2022-09-13T12:14:04;29.00;72.50
851;DHT22;412;51.400;7.480;2022-09-13T12:16:38;28.90;72.00
851;DHT22;412;51.400;7.480;2022-09-13T12:19:13;28.90;71.60
851;DHT22;412;51.400;7.480;2022-09-13T12:21:41;28.80;72.10
851;DHT22;412;51.400;7.480;2022-09-13T12:24:28;28.80;72.30
851;DHT22;412;51.400;7.480;2022-09-13T12:27:28;28.70;71.10
851;DHT22;412;51.400;7.480;2022-09-13T12:30:13;28.70;70.90
851;DHT22;412;51.400;7.480;2022-09-13T12:32:39;28.60;74.70
851;DHT22;412;51.400;7.480;2022-09-13T12:35:27;28.50;74.00
851;DHT22;412;51.400;7.480;2022-09-13T12:44:00;28.20;75.60
851;DHT22;412;51.400;7.480;2022-09-13T12:46:52;28.10;76.00
851;DHT22;412;51.400;7.480;2022-09-13T12:52:15;28.00;77.30
851;DHT22;412;51.400;7.480;2022-09-13T13:00:27;27.70;77.70
851;DHT22;412;51.400;7.480;2022-09-13T13:03:02;27.60;78.70
851;DHT22;412;51.400;7.480;2022-09-13T13:05:40;27.60;80.40
851;DHT22;412;51.400;7.480;2022-09-13T13:08:28;27.50;79.20
851;DHT22;412;51.400;7.480;2022-09-13T13:11:09;27.50;79.40
851;DHT22;412;51.400;7.480;2022-09-13T13:13:45;27.50;78.70
851;DHT22;412;51.400;7.480;2022-09-13T13:16:32;27.50;78.20
851;DHT22;412;51.400;7.480;2022-09-13T13:19:29;27.40;78.90
851;DHT22;412;51.400;7.480;2022-09-13T13:21:56;27.50;80.20
851;DHT22;412;51.400;7.480;2022-09-13T13:24:46;27.50;79.70
851;DHT22;412;51.400;7.480;2022-09-13T13:27:40;27.50;79.40
851;DHT22;412;51.400;7.480;2022-09-13T13:33:23;27.50;79.10
851;DHT22;412;51.400;7.480;2022-09-13T13:35:51;27.40;77.60
851;DHT22;412;51.400;7.480;2022-09-13T13:40:50;27.50;78.80
851;DHT22;412;51.400;7.480;2022-09-13T13:43:31;27.40;78.60
851;DHT22;412;51.400;7.480;2022-09-13T13:48:39;27.30;82.10
851;DHT22;412;51.400;7.480;2022-09-13T13:51:18;27.20;80.50
851;DHT22;412;51.400;7.480;2022-09-13T13:53:56;27.30;82.70
851;DHT22;412;51.400;7.480;2022-09-13T13:56:45;27.30;83.60
851;DHT22;412;51.400;7.480;2022-09-13T13:59:16;27.30;83.00
851;DHT22;412;51.400;7.480;2022-09-13T14:01:47;27.30;81.70
851;DHT22;412;51.400;7.480;2022-09-13T14:04:42;27.30;83.00
851;DHT22;412;51.400;7.480;2022-09-13T14:10:05;27.40;82.70
851;DHT22;412;51.400;7.480;2022-09-13T14:12:56;27.40;83.20
851;DHT22;412;51.400;7.480;2022-09-13T14:15:39;27.30;84.30
851;DHT22;412;51.400;7.480;2022-09-13T14:18:30;27.40;85.10
851;DHT22;412;51.400;7.480;2022-09-13T14:20:59;27.40;85.20
851;DHT22;412;51.400;7.480;2022-09-13T14:23:25;27.40;85.20
851;DHT22;412;51.400;7.480;2022-09-13T14:25:57;27.40;86.90
851;DHT22;412;51.400;7.480;2022-09-13T14:28:24;27.50;88.00
851;DHT22;412;51.400;7.480;2022-09-13T14:30:55;27.50;89.50
851;DHT22;412;51.400;7.480;2022-09-13T14:33:32;27.40;88.20
851;DHT22;412;51.400;7.480;2022-09-13T14:36:06;27.40;89.00
851;DHT22;412;51.400;7.480;2022-09-13T14:38:34;27.50;88.30
851;DHT22;412;51.400;7.480;2022-09-13T14:41:15;27.50;87.90
851;DHT22;412;51.400;7.480;2022-09-13T14:43:42;27.50;87.40
851;DHT22;412;51.400;7.480;2022-09-13T14:46:26;27.60;86.40
851;DHT22;412;51.400;7.480;2022-09-13T14:48:56;27.50;83.70
851;DHT22;412;51.400;7.480;2022-09-13T14:51:34;27.50;84.00
851;DHT22;412;51.400;7.480;2022-09-13T14:54:22;27.40;84.50
851;DHT22;412;51.400;7.480;2022-09-13T14:56:59;27.40;84.00
851;DHT22;412;51.400;7.480;2022-09-13T14:59:30;27.30;84.50
851;DHT22;412;51.400;7.480;2022-09-13T15:02:04;27.30;84.40
851;DHT22;412;51.400;7.480;2022-09-13T15:04:29;27.20;85.00
851;DHT22;412;51.400;7.480;2022-09-13T15:07:17;27.10;85.50
851;DHT22;412;51.400;7.480;2022-09-13T15:12:50;26.90;85.90
851;DHT22;412;51.400;7.480;2022-09-13T15:17:59;26.90;85.60
851;DHT22;412;51.400;7.480;2022-09-13T15:23:17;26.90;86.80
851;DHT22;412;51.400;7.480;2022-09-13T15:25:57;26.90;87.00
851;DHT22;412;51.400;7.480;2022-09-13T15:28:28;26.90;88.50
851;DHT22;412;51.400;7.480;2022-09-13T15:30:55;26.80;88.00
851;DHT22;412;51.400;7.480;2022-09-13T15:33:30;26.80;88.70
851;DHT22;412;51.400;7.480;2022-09-13T15:39:14;26.80;90.70
851;DHT22;412;51.400;7.480;2022-09-13T15:41:55;26.70;91.40
851;DHT22;412;51.400;7.480;2022-09-13T15:44:22;26.70;91.80
851;DHT22;412;51.400;7.480;2022-09-13T15:46:52;26.70;92.20
851;DHT22;412;51.400;7.480;2022-09-13T15:49:21;26.60;92.60
851;DHT22;412;51.400;7.480;2022-09-13T15:51:53;26.50;92.10
851;DHT22;412;51.400;7.480;2022-09-13T15:54:18;26.40;92.70
851;DHT22;412;51.400;7.480;2022-09-13T15:56:48;26.30;92.80
851;DHT22;412;51.400;7.480;2022-09-13T15:59:20;26.30;93.20
851;DHT22;412;51.400;7.480;2022-09-13T16:01:48;26.20;94.40
851;DHT22;412;51.400;7.480;2022-09-13T16:04:14;26.20;94.80
851;DHT22;412;51.400;7.480;2022-09-13T16:06:40;26.10;94.90
851;DHT22;412;51.400;7.480;2022-09-13T16:09:16;26.00;94.80
851;DHT22;412;51.400;7.480;2022-09-13T16:11:44;25.90;94.90
851;DHT22;412;51.400;7.480;2022-09-13T16:14:09;25.90;95.00
851;DHT22;412;51.400;7.480;2022-09-13T16:16:35;25.80;95.20
851;DHT22;412;51.400;7.480;2022-09-13T16:19:01;25.80;96.10
851;DHT22;412;51.400;7.480;2022-09-13T16:21:27;25.70;95.90
851;DHT22;412;51.400;7.480;2022-09-13T16:23:54;25.70;96.10
851;DHT22;412;51.400;7.480;2022-09-13T16:26:20;25.60;96.40
851;DHT22;412;51.400;7.480;2022-09-13T16:28:45;25.60;97.30
851;DHT22;412;51.400;7.480;2022-09-13T16:31:11;25.60;96.90
851;DHT22;412;51.400;7.480;2022-09-13T16:33:39;25.50;96.60
851;DHT22;412;51.400;7.480;2022-09-13T16:36:05;25.50;97.40
851;DHT22;412;51.400;7.480;2022-09-13T16:38:31;25.40;97.40
851;DHT22;412;51.400;7.480;2022-09-13T16:40:56;25.40;97.90
851;DHT22;412;51.400;7.480;2022-09-13T16:43:22;25.40;98.10
851;DHT22;412;51.400;7.480;2022-09-13T16:45:48;25.30;98.40
851;DHT22;412;51.400;7.480;2022-09-13T16:48:15;25.30;98.30
851;DHT22;412;51.400;7.480;2022-09-13T16:50:41;25.30;97.80
851;DHT22;412;51.400;7.480;2022-09-13T16:53:07;25.20;98.00
851;DHT22;412;51.400;7.480;2022-09-13T16:55:33;25.20;98.10
851;DHT22;412;51.400;7.480;2022-09-13T16:57:59;25.20;98.50
851;DHT22;412;51.400;7.480;2022-09-13T17:00:25;25.10;98.70
851;DHT22;412;51.400;7.480;2022-09-13T17:02:54;25.10;98.90
851;DHT22;412;51.400;7.480;2022-09-13T17:05:21;25.00;98.70
851;DHT22;412;51.400;7.480;2022-09-13T17:07:47;24.90;97.50
851;DHT22;412;51.400;7.480;2022-09-13T17:10:13;24.90;98.70
851;DHT22;412;51.400;7.480;2022-09-13T17:12:39;24.90;99.00
851;DHT22;412;51.400;7.480;2022-09-13T17:15:06;24.80;99.20
851;DHT22;412;51.400;7.480;2022-09-13T17:17:32;24.80;99.50
851;DHT22;412;51.400;7.480;2022-09-13T17:20:08;24.80;99.50
851;DHT22;412;51.400;7.480;2022-09-13T17:22:35;24.80;99.30
851;DHT22;412;51.400;7.480;2022-09-13T17:25:02;24.70;99.90
851;DHT22;412;51.400;7.480;2022-09-13T17:27:27;24.70;99.90
851;DHT22;412;51.400;7.480;2022-09-13T17:29:53;24.70;99.90
851;DHT22;412;51.400;7.480;2022-09-13T17:32:19;24.70;99.80
851;DHT22;412;51.400;7.480;2022-09-13T17:34:45;24.60;99.90
851;DHT22;412;51.400;7.480;2022-09-13T17:37:10;24.60;99.90
851;DHT22;412;51.400;7.480;2022-09-13T17:39:36;24.60;99.90
851;DHT22;412;51.400;7.480;2022-09-13T17:42:02;24.60;99.90
851;DHT22;412;51.400;7.480;2022-09-13T17:44:28;24.50;99.60
851;DHT22;412;51.400;7.480;2022-09-13T17:46:54;24.50;99.90
851;DHT22;412;51.400;7.480;2022-09-13T17:49:19;24.50;99.90
851;DHT22;412;51.400;7.480;2022-09-13T17:51:45;24.40;99.90
851;DHT22;412;51.400;7.480;2022-09-13T17:54:11;24.30;99.90
851;DHT22;412;51.400;7.480;2022-09-13T17:56:40;24.30;99.90
851;DHT22;412;51.400;7.480;2022-09-13T17:59:08;24.30;99.90
851;DHT22;412;51.400;7.480;2022-09-13T18:01:35;24.30;99.90
851;DHT22;412;51.400;7.480;2022-09-13T18:04:01;24.30;99.90
851;DHT22;412;51.400;7.480;2022-09-13T18:06:27;24.20;99.90
851;DHT22;412;51.400;7.480;2022-09-13T18:08:54;24.10;99.90
851;DHT22;412;51.400;7.480;2022-09-13T18:11:20;24.10;99.90
851;DHT22;412;51.400;7.480;2022-09-13T18:13:46;24.10;99.90
851;DHT22;412;51.400;7.480;2022-09-13T18:16:24;24.10;99.90
851;DHT22;412;51.400;7.480;2022-09-13T18:18:51;24.10;99.90
851;DHT22;412;51.400;7.480;2022-09-13T18:21:22;24.10;99.90
851;DHT22;412;51.400;7.480;2022-09-13T18:23:50;24.00;99.90
851;DHT22;412;51.400;7.480;2022-09-13T18:26:18;24.00;99.90
851;DHT22;412;51.400;7.480;2022-09-13T18:28:45;23.90;99.90
851;DHT22;412;51.400;7.480;2022-09-13T18:31:15;23.90;99.90
851;DHT22;412;51.400;7.480;2022-09-13T18:33:42;23.90;99.90
851;DHT22;412;51.400;7.480;2022-09-13T18:36:11;23.80;99.90
851;DHT22;412;51.400;7.480;2022-09-13T18:38:39;23.80;99.90
851;DHT22;412;51.400;7.480;2022-09-13T18:41:12;23.80;99.90
851;DHT22;412;51.400;7.480;2022-09-13T18:43:40;23.80;99.90
851;DHT22;412;51.400;7.480;2022-09-13T18:46:09;23.70;99.90
851;DHT22;412;51.400;7.480;2022-09-13T18:48:40;23.70;99.90
851;DHT22;412;51.400;7.480;2022-09-13T18:51:14;23.70;99.90
851;DHT22;412;51.400;7.480;2022-09-13T18:53:41;23.60;99.90
851;DHT22;412;51.400;7.480;2022-09-13T18:56:09;23.60;99.90
851;DHT22;412;51.400;7.480;2022-09-13T18:58:36;23.60;99.90
851;DHT22;412;51.400;7.480;2022-09-13T19:01:08;23.60;99.90
851;DHT22;412;51.400;7.480;2022-09-13T19:03:35;23.60;99.90
851;DHT22;412;51.400;7.480;2022-09-13T19:06:19;23.60;99.90
851;DHT22;412;51.400;7.480;2022-09-13T19:08:46;23.60;99.90
851;DHT22;412;51.400;7.480;2022-09-13T19:11:12;23.60;99.90
851;DHT22;412;51.400;7.480;2022-09-13T19:13:39;23.60;99.90
851;DHT22;412;51.400;7.480;2022-09-13T19:16:07;23.60;99.90
851;DHT22;412;51.400;7.480;2022-09-13T19:18:35;23.60;99.90
851;DHT22;412;51.400;7.480;2022-09-13T19:23:27;23.50;99.90
851;DHT22;412;51.400;7.480;2022-09-13T19:25:53;23.50;99.90
851;DHT22;412;51.400;7.480;2022-09-13T19:28:19;23.50;99.90
851;DHT22;412;51.400;7.480;2022-09-13T19:30:44;23.50;99.90
851;DHT22;412;51.400;7.480;2022-09-13T19:33:14;23.40;99.90
851;DHT22;412;51.400;7.480;2022-09-13T19:35:40;23.40;99.90
851;DHT22;412;51.400;7.480;2022-09-13T19:38:06;23.40;99.90
851;DHT22;412;51.400;7.480;2022-09-13T19:40:31;23.40;99.90
851;DHT22;412;51.400;7.480;2022-09-13T19:42:58;23.40;99.90
851;DHT22;412;51.400;7.480;2022-09-13T19:45:24;23.40;99.90
851;DHT22;412;51.400;7.480;2022-09-13T19:47:50;23.40;99.90
851;DHT22;412;51.400;7.480;2022-09-13T19:50:16;23.30;99.90
851;DHT22;412;51.400;7.480;2022-09-13T19:52:42;23.30;99.90
851;DHT22;412;51.400;7.480;2022-09-13T19:55:08;23.30;99.90